createdAt,value
2023-05-14T00:01:37.601Z,80.60
2023-05-14T00:04:10.132Z,79.77
2023-05-14T00:06:44.573Z,80.03
2023-05-14T00:09:16.907Z,80.52
2023-05-14T00:11:49.938Z,81.53
2023-05-14T00:14:22.541Z,81.75
2023-05-14T00:16:54.795Z,80.99
2023-05-14T00:19:27.109Z,80.67
2023-05-14T00:21:59.338Z,80.36
2023-05-14T00:24:31.590Z,80.22
2023-05-14T00:27:04.648Z,80.56
2023-05-14T00:29:37.560Z,81.25
2023-05-14T00:32:10.977Z,80.85
2023-05-14T00:34:43.259Z,80.51
2023-05-14T00:37:15.577Z,80.72
2023-05-14T00:39:48.252Z,80.72
2023-05-14T00:42:21.187Z,80.71
2023-05-14T00:44:53.739Z,81.06
2023-05-14T00:47:26.585Z,81.63
2023-05-14T00:49:59.104Z,81.63
2023-05-14T00:52:34.047Z,81.40
2023-05-14T00:55:09.772Z,80.59
2023-05-14T00:57:43.094Z,80.99
2023-05-14T01:00:17.398Z,80.84
2023-05-14T01:02:48.587Z,79.56
2023-05-14T01:05:21.638Z,80.39
2023-05-14T01:08:04.574Z,80.63
2023-05-14T01:10:47.397Z,80.59
2023-05-14T01:13:28.311Z,80.85
2023-05-14T01:16:05.261Z,81.12
2023-05-14T01:18:40.724Z,81.00
2023-05-14T01:21:35.156Z,81.03
2023-05-14T01:24:09.017Z,81.13
2023-05-14T01:26:46.088Z,80.96
2023-05-14T01:29:23.288Z,80.81
2023-05-14T01:31:58.799Z,80.90
2023-05-14T01:34:34.211Z,81.14
2023-05-14T01:37:07.812Z,81.46
2023-05-14T01:39:42.489Z,81.66
2023-05-14T01:42:15.096Z,82.97
2023-05-14T01:44:48.510Z,83.12
2023-05-14T01:47:21.209Z,81.55
2023-05-14T01:49:54.349Z,81.88
2023-05-14T01:52:27.079Z,82.61
2023-05-14T01:55:00.313Z,82.98
2023-05-14T01:57:33.086Z,82.86
2023-05-14T02:00:06.832Z,82.75
2023-05-14T02:02:46.200Z,82.30
2023-05-14T02:05:21.501Z,82.65
2023-05-14T02:07:54.103Z,82.95
2023-05-14T02:10:27.297Z,83.14
2023-05-14T02:12:59.643Z,82.53
2023-05-14T02:15:32.010Z,82.10
2023-05-14T02:18:04.223Z,81.89
2023-05-14T02:20:36.476Z,81.93
2023-05-14T02:23:09.563Z,81.76
2023-05-14T02:25:42.301Z,81.55
2023-05-14T02:28:14.501Z,81.80
2023-05-14T02:30:46.925Z,82.13
2023-05-14T02:33:19.726Z,82.67
2023-05-14T02:35:52.526Z,83.22
2023-05-14T02:38:25.501Z,83.60
2023-05-14T02:40:58.986Z,82.99
2023-05-14T02:43:31.218Z,82.76
2023-05-14T02:46:03.957Z,83.27
2023-05-14T02:48:36.360Z,83.22
2023-05-14T02:51:10.128Z,83.21
2023-05-14T02:53:43.579Z,83.52
2023-05-14T02:56:15.946Z,84.05
2023-05-14T02:58:48.391Z,84.21
2023-05-14T03:01:21.885Z,82.46
2023-05-14T03:04:00.468Z,82.41
2023-05-14T03:06:32.731Z,82.28
2023-05-14T03:09:05.001Z,82.49
2023-05-14T03:11:37.873Z,81.94
2023-05-14T03:14:10.404Z,82.19
2023-05-14T03:16:44.379Z,82.46
2023-05-14T03:19:17.667Z,82.46
2023-05-14T03:21:50.484Z,82.24
2023-05-14T03:24:22.845Z,82.44
2023-05-14T03:26:56.346Z,82.30
2023-05-14T03:29:29.274Z,82.58
2023-05-14T03:32:01.473Z,82.80
2023-05-14T03:34:33.857Z,83.09
2023-05-14T03:37:06.389Z,83.85
2023-05-14T03:39:39.564Z,83.90
2023-05-14T03:42:12.054Z,83.13
2023-05-14T03:44:44.383Z,83.11
2023-05-14T03:47:17.232Z,83.36
2023-05-14T03:49:52.516Z,83.47
2023-05-14T03:52:24.737Z,82.13
2023-05-14T03:54:57.754Z,82.02
2023-05-14T03:57:30.075Z,82.63
2023-05-14T04:00:02.327Z,83.07
2023-05-14T04:02:34.871Z,83.27
2023-05-14T04:05:08.002Z,83.48
2023-05-14T04:07:40.213Z,83.07
2023-05-14T04:10:14.286Z,81.35
2023-05-14T04:12:46.936Z,78.32
2023-05-14T04:15:19.661Z,73.62
2023-05-14T04:17:54.756Z,71.17
2023-05-14T04:20:27.706Z,69.06
2023-05-14T04:23:00.671Z,68.15
2023-05-14T04:25:32.997Z,64.90
2023-05-14T04:28:05.554Z,60.59
2023-05-14T04:30:38.687Z,58.36
2023-05-14T04:33:11.501Z,57.06
2023-05-14T04:35:44.763Z,58.20
2023-05-14T04:38:17.233Z,58.07
2023-05-14T04:40:49.644Z,56.03
2023-05-14T04:43:24.658Z,53.18
2023-05-14T04:45:58.336Z,50.63
2023-05-14T04:48:30.939Z,49.26
2023-05-14T04:51:05.036Z,46.72
2023-05-14T04:53:39.986Z,44.68
2023-05-14T04:56:13.228Z,40.75
2023-05-14T04:58:45.532Z,39.80
2023-05-14T05:01:17.970Z,37.50
2023-05-14T05:03:50.420Z,38.15
2023-05-14T05:06:25.077Z,35.74
2023-05-14T05:09:01.975Z,34.46
2023-05-14T05:11:35.120Z,33.85
2023-05-14T05:14:07.558Z,31.92
2023-05-14T05:16:41.068Z,31.16
2023-05-14T05:19:13.520Z,30.29
2023-05-14T05:21:45.950Z,29.44
2023-05-14T05:24:18.623Z,30.39
2023-05-14T05:26:52.525Z,30.97
2023-05-14T05:29:27.546Z,30.55
2023-05-14T05:32:00.088Z,30.21
2023-05-14T05:34:32.517Z,31.04
2023-05-14T05:37:06.262Z,33.12
2023-05-14T05:39:39.581Z,33.24
2023-05-14T05:42:12.003Z,33.15
2023-05-14T05:44:44.372Z,32.32
2023-05-14T05:47:17.370Z,30.82
2023-05-14T05:49:49.890Z,31.51
2023-05-14T05:52:22.452Z,30.44
2023-05-14T05:54:55.881Z,29.81
2023-05-14T05:57:29.978Z,30.46
2023-05-14T06:00:10.135Z,28.96
2023-05-14T06:02:45.481Z,28.90
2023-05-14T06:05:18.652Z,27.66
2023-05-14T06:07:51.155Z,27.62
2023-05-14T06:10:26.616Z,27.97
2023-05-14T06:13:00.152Z,29.03
2023-05-14T06:15:32.766Z,29.75
2023-05-14T06:18:05.379Z,29.81
2023-05-14T06:20:38.689Z,31.81
2023-05-14T06:23:12.492Z,33.85
2023-05-14T06:25:44.787Z,32.53
2023-05-14T06:28:17.271Z,34.07
2023-05-14T06:30:56.224Z,35.06
2023-05-14T06:33:31.884Z,36.37
2023-05-14T06:36:08.191Z,37.12
2023-05-14T06:38:41.649Z,38.37
2023-05-14T06:41:14.275Z,39.14
2023-05-14T06:43:46.544Z,41.10
2023-05-14T06:46:19.087Z,40.60
2023-05-14T06:48:51.432Z,42.66
2023-05-14T06:51:23.867Z,41.52
2023-05-14T06:54:04.539Z,40.80
2023-05-14T06:56:37.598Z,41.68
2023-05-14T06:59:12.865Z,43.00
2023-05-14T07:01:45.343Z,42.25
2023-05-14T07:04:22.384Z,42.01
2023-05-14T07:06:54.730Z,41.61
2023-05-14T07:09:27.268Z,40.22
2023-05-14T07:11:59.623Z,39.93
2023-05-14T07:14:32.255Z,40.88
2023-05-14T07:17:04.743Z,39.84
2023-05-14T07:19:37.688Z,39.61
2023-05-14T07:22:10.326Z,39.79
2023-05-14T07:24:45.420Z,40.85
2023-05-14T07:27:18.225Z,40.47
2023-05-14T07:29:50.802Z,40.88
2023-05-14T07:32:25.249Z,40.44
2023-05-14T07:34:57.743Z,40.33
2023-05-14T07:37:30.126Z,40.17
2023-05-14T07:40:08.200Z,40.17
2023-05-14T07:42:41.117Z,39.87
2023-05-14T07:45:14.013Z,39.81
2023-05-14T07:47:46.321Z,39.01
2023-05-14T07:50:19.676Z,38.57
2023-05-14T07:52:51.941Z,37.87
2023-05-14T07:55:24.850Z,37.51
2023-05-14T07:57:57.210Z,36.50
2023-05-14T08:00:30.746Z,35.92
2023-05-14T08:03:03.188Z,35.60
2023-05-14T08:05:35.587Z,36.69
2023-05-14T08:08:08.546Z,35.60
2023-05-14T08:10:42.296Z,35.74
2023-05-14T08:13:13.000Z,36.62
2023-05-14T08:15:45.288Z,35.39
2023-05-14T08:18:18.389Z,35.59
2023-05-14T08:20:51.478Z,35.03
2023-05-14T08:23:23.853Z,35.46
2023-05-14T08:25:56.120Z,35.72
2023-05-14T08:28:28.798Z,35.85
2023-05-14T08:31:01.262Z,35.95
2023-05-14T08:33:33.590Z,36.04
2023-05-14T08:36:08.865Z,36.72
2023-05-14T08:38:44.436Z,36.53
2023-05-14T08:41:22.953Z,35.99
2023-05-14T08:44:10.255Z,34.92
2023-05-14T08:46:45.654Z,35.07
2023-05-14T08:49:34.122Z,34.73
2023-05-14T08:52:08.222Z,35.18
2023-05-14T08:54:41.350Z,34.49
2023-05-14T08:57:14.486Z,34.88
2023-05-14T08:59:47.450Z,33.04
2023-05-14T09:02:22.218Z,33.97
2023-05-14T09:04:59.218Z,32.56
2023-05-14T09:07:31.535Z,32.57
2023-05-14T09:10:04.231Z,32.60
2023-05-14T09:12:37.419Z,31.79
2023-05-14T09:15:11.722Z,31.08
2023-05-14T09:17:44.524Z,30.72
2023-05-14T09:20:18.041Z,31.21
2023-05-14T09:22:48.756Z,33.26
2023-05-14T09:25:21.122Z,31.18
2023-05-14T09:27:55.693Z,30.01
2023-05-14T09:30:30.267Z,29.79
2023-05-14T09:33:04.304Z,29.49
2023-05-14T09:35:39.426Z,29.19
2023-05-14T09:38:12.405Z,29.02
2023-05-14T09:40:44.663Z,28.48
2023-05-14T09:43:16.944Z,28.20
2023-05-14T09:45:49.362Z,28.57
2023-05-14T09:48:22.596Z,28.06
2023-05-14T09:50:54.939Z,27.89
2023-05-14T09:53:27.682Z,27.26
2023-05-14T09:56:00.180Z,27.50
2023-05-14T09:58:32.689Z,27.41
2023-05-14T10:01:06.322Z,27.26
2023-05-14T10:03:40.674Z,26.80
2023-05-14T10:06:15.114Z,26.09
2023-05-14T10:08:49.928Z,25.83
2023-05-14T10:11:26.557Z,25.72
2023-05-14T10:14:10.911Z,26.20
2023-05-14T10:16:48.342Z,25.97
2023-05-14T10:19:22.470Z,25.34
2023-05-14T10:22:01.116Z,25.98
2023-05-14T10:24:34.363Z,25.75
2023-05-14T10:27:05.159Z,27.76
2023-05-14T10:29:39.893Z,25.76
2023-05-14T10:32:13.552Z,25.65
2023-05-14T10:34:46.513Z,25.74
2023-05-14T10:37:21.118Z,26.63
2023-05-14T10:39:55.587Z,25.82
2023-05-14T10:42:30.057Z,26.27
2023-05-14T10:45:06.007Z,26.35
2023-05-14T10:47:40.284Z,26.05
2023-05-14T10:50:15.334Z,26.93
2023-05-14T10:52:48.252Z,26.16
2023-05-14T10:55:20.497Z,27.20
2023-05-14T10:57:53.689Z,26.90
2023-05-14T11:00:27.993Z,27.89
2023-05-14T11:03:01.783Z,27.93
2023-05-14T11:05:39.432Z,27.41
2023-05-14T11:08:13.147Z,28.17
2023-05-14T11:10:47.279Z,28.20
2023-05-14T11:13:20.368Z,28.20
2023-05-14T11:15:53.484Z,27.45
2023-05-14T11:18:31.194Z,28.44
2023-05-14T11:21:03.802Z,27.28
2023-05-14T11:23:36.081Z,26.62
2023-05-14T11:26:09.013Z,26.89
2023-05-14T11:28:42.462Z,26.99
2023-05-14T11:31:15.696Z,27.32
2023-05-14T11:33:47.994Z,26.93
2023-05-14T11:36:20.289Z,26.66
2023-05-14T11:38:52.847Z,27.18
2023-05-14T11:41:28.255Z,26.57
2023-05-14T11:44:01.102Z,26.29
2023-05-14T11:46:33.456Z,26.42
2023-05-14T11:49:09.546Z,26.60
2023-05-14T11:51:41.953Z,25.35
2023-05-14T11:54:16.945Z,26.34
2023-05-14T11:56:54.085Z,25.83
2023-05-14T11:59:27.250Z,25.98
2023-05-14T12:01:59.861Z,24.99
2023-05-14T12:04:32.570Z,24.63
2023-05-14T12:07:11.813Z,24.47
2023-05-14T12:09:49.619Z,24.58
2023-05-14T12:12:23.831Z,24.63
2023-05-14T12:14:56.199Z,24.84
2023-05-14T12:17:28.564Z,25.22
2023-05-14T12:20:01.771Z,25.77
2023-05-14T12:22:32.478Z,26.64
2023-05-14T12:25:05.196Z,26.46
2023-05-14T12:27:40.823Z,26.34
2023-05-14T12:32:53.128Z,26.26
2023-05-14T12:35:25.882Z,26.32
2023-05-14T12:37:58.323Z,26.20
2023-05-14T12:40:30.639Z,26.49
2023-05-14T12:43:04.394Z,26.71
2023-05-14T12:45:36.640Z,26.78
2023-05-14T12:48:09.860Z,26.45
2023-05-14T12:50:42.273Z,26.43
2023-05-14T12:53:16.543Z,26.85
2023-05-14T12:55:49.852Z,26.68
2023-05-14T12:58:22.215Z,27.12
2023-05-14T13:00:54.857Z,26.92
2023-05-14T13:03:27.951Z,27.64
2023-05-14T13:06:00.487Z,27.76
2023-05-14T13:08:32.797Z,26.80
2023-05-14T13:11:05.051Z,28.18
2023-05-14T13:13:39.542Z,27.39
2023-05-14T13:16:17.049Z,27.40
2023-05-14T13:18:49.693Z,27.14
2023-05-14T13:21:22.756Z,27.35
2023-05-14T13:23:55.112Z,27.57
2023-05-14T13:26:28.471Z,28.12
2023-05-14T13:29:01.241Z,27.72
2023-05-14T13:31:34.065Z,27.61
2023-05-14T13:34:08.325Z,27.27
2023-05-14T13:36:40.949Z,28.35
2023-05-14T13:39:14.437Z,27.96
2023-05-14T13:41:47.023Z,27.62
2023-05-14T13:44:19.509Z,27.16
2023-05-14T13:46:51.917Z,27.09
2023-05-14T13:49:24.375Z,27.64
2023-05-14T13:51:56.605Z,27.75
2023-05-14T13:54:28.926Z,28.24
2023-05-14T13:57:01.222Z,28.22
2023-05-14T13:59:33.635Z,28.58
2023-05-14T14:02:07.225Z,28.90
2023-05-14T14:04:40.295Z,28.41
2023-05-14T14:07:12.646Z,28.72
2023-05-14T14:09:45.376Z,29.03
2023-05-14T14:12:17.754Z,28.24
2023-05-14T14:14:51.131Z,28.74
2023-05-14T14:17:25.387Z,29.41
2023-05-14T14:19:57.839Z,29.34
2023-05-14T14:22:30.200Z,30.04
2023-05-14T14:25:02.877Z,30.43
2023-05-14T14:27:39.679Z,30.08
2023-05-14T14:30:16.842Z,29.60
2023-05-14T14:32:50.002Z,29.51
2023-05-14T14:35:23.218Z,29.90
2023-05-14T14:37:55.942Z,30.26
2023-05-14T14:40:28.476Z,29.99
2023-05-14T14:43:02.571Z,30.40
2023-05-14T14:45:35.027Z,30.09
2023-05-14T14:48:25.264Z,29.77
2023-05-14T14:50:58.972Z,30.00
2023-05-14T14:53:41.552Z,30.66
2023-05-14T14:56:14.965Z,30.15
2023-05-14T14:58:47.337Z,29.84
2023-05-14T15:01:19.875Z,30.10
2023-05-14T15:03:52.774Z,29.49
2023-05-14T15:06:25.091Z,29.92
2023-05-14T15:08:57.656Z,29.59
2023-05-14T15:11:30.654Z,29.86
2023-05-14T15:14:08.171Z,29.89
2023-05-14T15:16:44.701Z,30.03
2023-05-14T15:19:17.345Z,30.44
2023-05-14T15:21:50.428Z,30.65
2023-05-14T15:24:24.187Z,30.72
2023-05-14T15:26:56.670Z,30.73
2023-05-14T15:29:29.101Z,31.20
2023-05-14T15:32:06.812Z,30.89
2023-05-14T15:34:44.682Z,31.40
2023-05-14T15:37:17.119Z,31.59
2023-05-14T15:39:49.599Z,31.93
2023-05-14T15:42:22.280Z,31.96
2023-05-14T15:44:54.634Z,31.75
2023-05-14T15:47:27.441Z,32.19
2023-05-14T15:50:00.080Z,32.11
2023-05-14T15:52:33.826Z,32.78
2023-05-14T15:55:05.054Z,31.83
2023-05-14T15:57:40.642Z,32.41
2023-05-14T16:00:15.097Z,33.26
2023-05-14T16:02:47.638Z,32.74
2023-05-14T16:05:20.405Z,33.02
2023-05-14T16:07:53.129Z,33.23
2023-05-14T16:10:26.206Z,34.08
2023-05-14T16:12:58.752Z,33.49
2023-05-14T16:15:31.312Z,33.22
2023-05-14T16:18:04.323Z,33.47
2023-05-14T16:20:36.584Z,33.18
2023-05-14T16:23:09.109Z,33.51
2023-05-14T16:25:44.034Z,33.57
2023-05-14T16:28:16.753Z,32.84
2023-05-14T16:30:49.286Z,33.05
2023-05-14T16:33:21.467Z,33.55
2023-05-14T16:35:54.285Z,33.89
2023-05-14T16:38:27.006Z,33.14
2023-05-14T16:40:59.324Z,32.92
2023-05-14T16:43:31.489Z,32.98
2023-05-14T16:46:03.933Z,33.05
2023-05-14T16:48:36.245Z,33.19
2023-05-14T16:51:10.831Z,33.41
2023-05-14T16:53:43.360Z,33.66
2023-05-14T16:56:16.017Z,33.76
2023-05-14T16:58:48.296Z,33.79
2023-05-14T17:01:20.646Z,34.22
2023-05-14T17:03:54.627Z,34.15
2023-05-14T17:06:27.847Z,33.88
2023-05-14T17:09:00.234Z,34.42
2023-05-14T17:11:33.068Z,33.81
2023-05-14T17:14:04.149Z,34.27
2023-05-14T17:16:42.466Z,34.01
2023-05-14T17:19:13.783Z,34.38
2023-05-14T17:21:46.189Z,34.83
2023-05-14T17:24:18.627Z,34.78
2023-05-14T17:26:50.961Z,35.04
2023-05-14T17:29:23.451Z,35.41
2023-05-14T17:31:56.107Z,35.66
2023-05-14T17:34:28.676Z,35.54
2023-05-14T17:37:01.144Z,35.33
2023-05-14T17:39:33.390Z,35.68
2023-05-14T17:42:06.420Z,35.77
2023-05-14T17:44:41.606Z,36.27
2023-05-14T17:47:14.020Z,36.49
2023-05-14T17:49:46.578Z,37.58
2023-05-14T17:52:19.334Z,36.96
2023-05-14T17:54:51.721Z,37.29
2023-05-14T17:57:24.255Z,37.66
2023-05-14T17:59:56.635Z,37.87
2023-05-14T18:02:29.271Z,37.87
2023-05-14T18:05:03.483Z,38.21
2023-05-14T18:07:36.577Z,38.81
2023-05-14T18:10:11.650Z,38.78
2023-05-14T18:12:46.424Z,40.12
2023-05-14T18:15:20.326Z,39.94
2023-05-14T18:21:17.800Z,41.18
2023-05-14T18:23:50.239Z,41.53
2023-05-14T18:26:23.429Z,41.83
2023-05-14T18:28:55.945Z,42.35
2023-05-14T18:31:28.979Z,42.72
2023-05-14T18:34:02.026Z,42.93
2023-05-14T18:36:34.664Z,44.56
2023-05-14T18:39:06.991Z,44.38
2023-05-14T18:41:45.415Z,44.97
2023-05-14T18:44:17.965Z,45.95
2023-05-14T18:46:50.545Z,45.46
2023-05-14T18:49:22.936Z,45.10
2023-05-14T18:51:55.246Z,45.30
2023-05-14T18:54:27.635Z,45.39
2023-05-14T18:57:00.344Z,45.97
2023-05-14T18:59:32.729Z,45.43
2023-05-14T19:02:05.202Z,46.11
2023-05-14T19:04:50.771Z,46.19
2023-05-14T19:07:24.862Z,46.64
2023-05-14T19:10:10.065Z,46.94
2023-05-14T19:12:44.828Z,48.13
2023-05-14T19:15:17.307Z,48.61
2023-05-14T19:17:49.675Z,49.21
2023-05-14T19:20:22.515Z,49.55
2023-05-14T19:22:55.350Z,50.59
2023-05-14T19:25:28.017Z,50.59
2023-05-14T19:28:01.746Z,51.20
2023-05-14T19:30:34.131Z,51.74
2023-05-14T19:33:06.674Z,51.72
2023-05-14T19:35:39.387Z,52.15
2023-05-14T19:38:11.934Z,52.22
2023-05-14T19:40:45.704Z,53.00
2023-05-14T19:43:17.986Z,52.18
2023-05-14T19:45:50.829Z,52.97
2023-05-14T19:48:23.171Z,53.84
2023-05-14T19:50:55.902Z,54.22
2023-05-14T19:53:30.952Z,53.92
2023-05-14T19:56:03.815Z,53.64
2023-05-14T19:58:36.480Z,54.13
2023-05-14T20:01:09.756Z,54.65
2023-05-14T20:03:42.552Z,54.95
2023-05-14T20:06:15.149Z,55.47
2023-05-14T20:08:47.672Z,55.70
2023-05-14T20:11:20.091Z,55.15
2023-05-14T20:13:52.349Z,55.58
2023-05-14T20:16:27.905Z,55.11
2023-05-14T20:19:01.593Z,55.04
2023-05-14T20:21:34.997Z,55.58
2023-05-14T20:24:07.932Z,56.19
2023-05-14T20:26:42.819Z,57.10
2023-05-14T20:29:15.803Z,55.72
2023-05-14T20:31:48.206Z,55.46
2023-05-14T20:34:20.475Z,55.14
2023-05-14T20:36:53.258Z,54.89
2023-05-14T20:39:27.871Z,54.93
2023-05-14T20:42:02.967Z,54.19
2023-05-14T20:44:35.776Z,53.86
2023-05-14T20:47:09.325Z,55.60
2023-05-14T20:49:42.724Z,53.13
2023-05-14T20:52:15.387Z,53.40
2023-05-14T20:54:47.688Z,52.43
2023-05-14T20:57:20.709Z,52.02
2023-05-14T20:59:53.090Z,53.18
2023-05-14T21:02:25.694Z,51.68
2023-05-14T21:05:04.623Z,51.89
2023-05-14T21:07:38.106Z,51.40
2023-05-14T21:10:12.423Z,51.50
2023-05-14T21:12:45.165Z,51.72
2023-05-14T21:15:17.455Z,53.67
2023-05-14T21:17:49.859Z,52.54
2023-05-14T21:20:22.432Z,51.33
2023-05-14T21:22:54.856Z,51.02
2023-05-14T21:25:27.996Z,50.61
2023-05-14T21:28:00.542Z,50.26
2023-05-14T21:30:34.430Z,50.79
2023-05-14T21:33:07.173Z,51.40
2023-05-14T21:35:39.631Z,50.21
2023-05-14T21:38:12.053Z,50.45
2023-05-14T21:40:44.284Z,50.37
2023-05-14T21:43:16.660Z,51.42
2023-05-14T21:45:49.440Z,50.83
2023-05-14T21:48:23.026Z,50.98
2023-05-14T21:50:56.135Z,51.60
2023-05-14T21:53:28.707Z,50.83
2023-05-14T21:56:03.944Z,50.63
2023-05-14T21:58:36.651Z,50.49
2023-05-14T22:01:11.792Z,50.29
2023-05-14T22:03:45.337Z,49.96
2023-05-14T22:06:20.087Z,50.17
2023-05-14T22:08:52.349Z,49.93
2023-05-14T22:11:24.716Z,50.38
2023-05-14T22:13:56.914Z,49.80
2023-05-14T22:16:29.624Z,49.83
2023-05-14T22:19:06.459Z,49.85
2023-05-14T22:21:41.575Z,49.89
2023-05-14T22:24:14.019Z,49.53
2023-05-14T22:26:46.603Z,49.24
2023-05-14T22:29:18.917Z,49.56
2023-05-14T22:31:51.478Z,49.59
2023-05-14T22:34:23.879Z,49.54
2023-05-14T22:36:56.281Z,49.43
2023-05-14T22:39:28.779Z,49.72
2023-05-14T22:42:01.832Z,49.79
2023-05-14T22:44:36.012Z,49.45
2023-05-14T22:47:09.817Z,49.70
2023-05-14T22:49:43.785Z,49.39
2023-05-14T22:52:14.515Z,48.54
2023-05-14T22:54:47.189Z,49.18
2023-05-14T22:57:19.527Z,49.44
2023-05-14T22:59:52.188Z,49.12
2023-05-14T23:02:24.748Z,49.43
2023-05-14T23:04:57.989Z,49.45
2023-05-14T23:07:30.487Z,49.39
2023-05-14T23:10:02.806Z,49.81
2023-05-14T23:12:35.185Z,49.57
2023-05-14T23:15:09.412Z,49.62
2023-05-14T23:17:42.828Z,48.65
2023-05-14T23:20:15.586Z,49.46
2023-05-14T23:22:48.622Z,49.91
2023-05-14T23:25:21.335Z,49.86
2023-05-14T23:27:53.675Z,49.94
2023-05-14T23:30:26.362Z,50.02
2023-05-14T23:32:58.702Z,49.95
2023-05-14T23:35:31.363Z,49.63
2023-05-14T23:38:05.172Z,49.95
2023-05-14T23:40:37.390Z,50.09
2023-05-14T23:43:10.861Z,50.08
2023-05-14T23:45:45.049Z,50.44
2023-05-14T23:48:17.521Z,50.44
2023-05-14T23:50:49.812Z,50.66
2023-05-14T23:53:22.310Z,50.22
2023-05-14T23:55:55.238Z,50.51
2023-05-14T23:58:27.561Z,50.56
